createdAt,value
2024-05-09T00:04:25.693Z,37.0
2024-05-09T00:16:25.587Z,37.0
2024-05-09T00:28:25.587Z,37.0
2024-05-09T00:40:31.247Z,39.1
2024-05-09T00:52:25.459Z,39.1
2024-05-09T01:04:25.538Z,43.4
2024-05-09T01:16:25.548Z,43.4
2024-05-09T01:28:25.449Z,43.4
2024-05-09T01:40:35.420Z,45.4
2024-05-09T01:52:25.498Z,45.4
2024-05-09T02:04:25.799Z,40.4
2024-05-09T02:16:25.474Z,40.4
2024-05-09T02:28:25.454Z,40.4
2024-05-09T02:40:33.738Z,48.3
2024-05-09T02:52:25.446Z,48.3
2024-05-09T03:04:25.521Z,47.8
2024-05-09T03:16:25.573Z,47.8
2024-05-09T03:28:25.505Z,47.8
2024-05-09T03:40:28.967Z,52.9
2024-05-09T03:52:25.459Z,52.9
2024-05-09T04:04:25.533Z,67.5
2024-05-09T04:16:25.446Z,67.5
2024-05-09T04:28:25.454Z,67.5
2024-05-09T04:40:32.871Z,61.5
2024-05-09T04:52:25.452Z,61.5
2024-05-09T05:04:25.508Z,52.2
2024-05-09T05:16:25.451Z,52.2
2024-05-09T05:28:25.449Z,52.2
2024-05-09T05:40:33.098Z,63.6
2024-05-09T05:52:25.457Z,63.6
2024-05-09T06:04:25.553Z,63.6
2024-05-09T06:16:25.454Z,63.6
2024-05-09T06:28:25.465Z,63.6
2024-05-09T06:40:30.030Z,60.7
2024-05-09T06:52:25.450Z,60.7
2024-05-09T07:04:25.677Z,44.0
2024-05-09T07:16:25.473Z,44.0
2024-05-09T07:28:25.469Z,44.0
2024-05-09T07:40:32.991Z,27.9
2024-05-09T08:04:26.671Z,18.3
2024-05-09T08:16:25.549Z,18.3
2024-05-09T08:28:25.522Z,18.3
2024-05-09T08:40:32.944Z,8.8
2024-05-09T08:52:26.562Z,8.8
2024-05-09T09:04:25.567Z,7.9
2024-05-09T09:16:25.609Z,7.9
2024-05-09T09:28:25.474Z,7.9
2024-05-09T09:52:25.554Z,8.2
2024-05-09T10:04:25.706Z,4.0
2024-05-09T10:16:25.640Z,4.0
2024-05-09T10:28:25.453Z,4.0
2024-05-09T10:40:31.045Z,4.2
2024-05-09T10:52:25.500Z,4.2
2024-05-09T11:04:25.572Z,3.7
2024-05-09T11:16:25.507Z,3.7
2024-05-09T11:28:25.501Z,3.7
2024-05-09T11:40:32.020Z,3.9
2024-05-09T11:52:25.540Z,3.9
2024-05-09T12:04:25.635Z,3.2
2024-05-09T12:16:25.672Z,3.2
2024-05-09T12:28:25.501Z,3.2
2024-05-09T12:40:33.442Z,3.9
2024-05-09T12:52:25.455Z,3.9
2024-05-09T13:04:26.664Z,2.9
2024-05-09T13:16:25.644Z,2.9
2024-05-09T13:28:25.674Z,2.9
2024-05-09T13:40:32.666Z,2.5
2024-05-09T13:52:25.502Z,2.5
2024-05-09T14:04:25.714Z,2.8
2024-05-09T14:16:25.618Z,2.8
2024-05-09T14:28:25.536Z,2.8
2024-05-09T14:40:36.246Z,2.2
2024-05-09T14:52:25.443Z,2.2
2024-05-09T15:04:25.669Z,2.4
2024-05-09T15:16:25.638Z,2.4
2024-05-09T15:28:25.609Z,2.4
2024-05-09T15:40:34.994Z,2.5
2024-05-09T15:52:25.450Z,2.5
2024-05-09T16:04:25.649Z,2.2
2024-05-09T16:16:25.579Z,2.2
2024-05-09T16:28:27.083Z,2.2
2024-05-09T16:40:34.414Z,3.0
2024-05-09T16:52:25.489Z,3.0
2024-05-09T17:04:25.560Z,2.5
2024-05-09T17:16:25.558Z,2.5
2024-05-09T17:28:25.515Z,2.5
2024-05-09T17:40:31.529Z,2.6
2024-05-09T17:52:25.499Z,2.6
2024-05-09T18:04:25.601Z,3.3
2024-05-09T18:16:25.614Z,3.3
2024-05-09T18:28:25.666Z,3.3
2024-05-09T18:40:32.398Z,3.9
2024-05-09T18:52:25.454Z,3.9
2024-05-09T19:04:25.716Z,7.9
2024-05-09T19:16:25.521Z,7.9
2024-05-09T19:28:25.697Z,7.9
2024-05-09T19:40:31.101Z,6.2
2024-05-09T19:52:25.571Z,6.2
2024-05-09T20:04:25.702Z,13.0
2024-05-09T20:16:25.552Z,13.0
2024-05-09T20:28:25.776Z,13.0
2024-05-09T20:40:31.649Z,7.9
2024-05-09T20:52:25.567Z,7.9
2024-05-09T21:04:25.660Z,7.0
2024-05-09T21:16:25.671Z,7.0
2024-05-09T21:28:25.713Z,7.0
2024-05-09T21:40:31.674Z,7.7
2024-05-09T21:52:25.577Z,7.7
2024-05-09T22:04:25.645Z,7.7
2024-05-09T22:16:25.717Z,7.7
2024-05-09T22:28:25.494Z,7.7
2024-05-09T22:40:37.893Z,8.3
2024-05-09T22:52:25.461Z,8.3
2024-05-09T23:04:25.614Z,9.0
2024-05-09T23:16:25.687Z,9.0
2024-05-09T23:28:25.756Z,9.0
2024-05-09T23:40:35.011Z,9.9
2024-05-09T23:52:25.610Z,9.9
